Time;durP1;ratioP1;P1;durP2;ratioP2;P2;SDS_P1;SDS_P2;PMS_P1;PMS_P2;Temp;Humidity;BMP_temperature;BMP_pressure;BME280_temperature;BME280_humidity;BME280_pressure;Samples;Min_cycle;Max_cycle;Signal;HPM_P1;HPM_P2
2020/12/22 00:01:16;;;;;;;2.17;1.98;;;16.20;65.00;;;;;;4862417;29;20049;-71
2020/12/22 00:03:42;;;;;;;1.83;1.70;;;16.20;65.00;;;;;;4862937;29;20056;-72
2020/12/22 00:06:09;;;;;;;2.10;1.77;;;16.20;65.00;;;;;;4863088;29;20053;-72
2020/12/22 00:08:35;;;;;;;1.50;1.40;;;16.20;65.00;;;;;;4863301;29;20120;-72
2020/12/22 00:11:01;;;;;;;2.00;1.80;;;16.20;65.10;;;;;;4862869;29;20140;-72
2020/12/22 00:13:27;;;;;;;1.88;1.52;;;16.20;65.20;;;;;;4862995;29;20362;-72
2020/12/22 00:15:53;;;;;;;2.13;1.92;;;16.10;65.10;;;;;;4862721;29;20045;-72
2020/12/22 00:18:19;;;;;;;2.10;1.92;;;16.10;65.20;;;;;;4862649;29;20058;-71
2020/12/22 00:20:45;;;;;;;2.00;1.80;;;16.10;65.20;;;;;;4863016;29;20109;-71
2020/12/22 00:23:11;;;;;;;1.77;1.67;;;16.10;65.20;;;;;;4863019;29;20418;-72
2020/12/22 00:25:48;;;;;;;1.77;1.52;;;16.10;65.40;;;;;;4863014;29;20061;-72
2020/12/22 00:28:14;;;;;;;1.92;1.65;;;16.10;65.30;;;;;;4860825;29;20065;-71
2020/12/22 00:30:42;;;;;;;1.83;1.60;;;16.10;65.40;;;;;;4862432;29;20053;-72
2020/12/22 00:33:08;;;;;;;1.90;1.80;;;16.10;65.50;;;;;;4863169;29;20068;-72
2020/12/22 00:35:34;;;;;;;1.83;1.60;;;16.10;65.50;;;;;;4863322;29;20463;-72
2020/12/22 00:38:00;;;;;;;1.70;1.60;;;16.10;65.60;;;;;;4863007;29;20136;-71
2020/12/22 00:40:27;;;;;;;3.10;1.67;;;16.10;65.70;;;;;;4862576;29;20069;-72
2020/12/22 00:42:53;;;;;;;2.38;1.80;;;16.10;65.70;;;;;;4862559;29;20532;-71
2020/12/22 00:45:20;;;;;;;1.80;1.70;;;16.10;65.90;;;;;;4862779;29;20046;-71
2020/12/22 00:47:45;;;;;;;3.83;1.92;;;16.10;65.90;;;;;;4862880;29;20474;-72
2020/12/22 00:50:12;;;;;;;2.10;1.80;;;16.10;66.00;;;;;;4862478;29;20049;-71
2020/12/22 00:52:38;;;;;;;2.25;1.80;;;16.10;66.00;;;;;;4862494;29;20113;-72
2020/12/22 00:55:05;;;;;;;2.63;1.42;;;16.00;65.90;;;;;;4863160;29;20450;-72
2020/12/22 00:57:30;;;;;;;1.98;1.33;;;16.10;66.10;;;;;;4862781;29;20056;-72
2020/12/22 00:59:56;;;;;;;2.70;1.42;;;16.00;66.10;;;;;;4862334;29;20053;-72
2020/12/22 01:02:22;;;;;;;3.53;1.45;;;16.10;66.20;;;;;;4862190;29;20053;-73
2020/12/22 01:04:49;;;;;;;3.20;1.52;;;16.00;66.10;;;;;;4862140;29;20085;-72
2020/12/22 01:07:16;;;;;;;2.70;1.10;;;16.00;66.30;;;;;;4864844;29;20065;-71
2020/12/22 01:09:41;;;;;;;2.67;1.67;;;16.00;66.40;;;;;;4866277;29;20076;-73
2020/12/22 01:12:07;;;;;;;3.38;1.15;;;16.00;66.40;;;;;;4866083;29;20050;-72
2020/12/22 01:14:36;;;;;;;3.63;1.40;;;16.00;66.50;;;;;;4865674;29;20360;-72
2020/12/22 01:17:03;;;;;;;4.45;1.25;;;16.00;66.50;;;;;;4865659;29;20050;-72
2020/12/22 01:19:29;;;;;;;4.03;1.10;;;16.00;66.60;;;;;;4865993;29;20045;-72
2020/12/22 01:21:56;;;;;;;2.95;0.90;;;16.00;66.60;;;;;;4865753;29;20046;-71
2020/12/22 01:24:22;;;;;;;3.60;1.00;;;16.00;66.70;;;;;;4865918;29;20105;-72
2020/12/22 01:26:55;;;;;;;3.03;0.90;;;16.00;66.70;;;;;;4865893;29;20444;-72
2020/12/22 01:29:21;;;;;;;3.97;0.70;;;16.00;66.80;;;;;;4862983;29;20150;-72
2020/12/22 01:31:48;;;;;;;2.92;0.90;;;16.00;66.80;;;;;;4865583;29;20373;-73
2020/12/22 01:34:14;;;;;;;2.47;0.90;;;16.00;66.90;;;;;;4865529;29;20053;-71
2020/12/22 01:36:40;;;;;;;1.38;0.52;;;16.00;67.00;;;;;;4866149;29;20121;-72
2020/12/22 01:39:06;;;;;;;1.70;0.60;;;16.00;67.00;;;;;;4865304;29;20149;-71
2020/12/22 01:41:36;;;;;;;2.75;0.60;;;16.00;67.10;;;;;;4865578;29;20086;-71
2020/12/22 01:44:17;;;;;;;2.75;0.68;;;16.00;67.10;;;;;;4865644;29;20049;-72
2020/12/22 01:46:50;;;;;;;1.35;0.40;;;16.00;67.10;;;;;;4865643;29;20049;-71
2020/12/22 01:49:18;;;;;;;2.30;0.45;;;16.00;67.20;;;;;;4865320;29;20121;-72
2020/12/22 01:51:46;;;;;;;2.33;0.50;;;15.90;67.20;;;;;;4865278;29;20069;-72
2020/12/22 01:54:13;;;;;;;1.17;0.50;;;15.90;67.30;;;;;;4865449;29;20049;-72
2020/12/22 01:56:40;;;;;;;2.47;0.60;;;15.90;67.30;;;;;;4865583;29;20084;-72
2020/12/22 01:59:06;;;;;;;2.08;0.40;;;16.00;67.50;;;;;;4864371;29;20049;-72
2020/12/22 02:01:33;;;;;;;2.88;0.40;;;15.90;67.40;;;;;;4865220;29;20049;-72
2020/12/22 02:04:00;;;;;;;0.85;0.38;;;16.00;67.50;;;;;;4865038;29;20068;-71
2020/12/22 02:06:30;;;;;;;1.60;0.50;;;16.00;67.60;;;;;;4865124;29;20052;-72
2020/12/22 02:08:56;;;;;;;1.60;0.50;;;15.90;67.50;;;;;;4865018;29;20050;-72
2020/12/22 02:11:26;;;;;;;2.00;0.40;;;15.90;67.60;;;;;;4865056;29;20049;-72
2020/12/22 02:13:53;;;;;;;1.55;0.40;;;15.90;67.70;;;;;;4864901;29;20147;-71
2020/12/22 02:16:19;;;;;;;1.80;0.28;;;15.90;67.70;;;;;;4864751;29;20407;-71
2020/12/22 02:18:47;;;;;;;1.70;0.35;;;15.90;67.70;;;;;;4865478;29;20053;-71
2020/12/22 02:21:13;;;;;;;1.63;0.52;;;15.90;67.80;;;;;;4865380;29;20113;-71
2020/12/22 02:23:39;;;;;;;2.38;0.70;;;15.90;67.80;;;;;;4864614;29;20061;-71
2020/12/22 02:26:05;;;;;;;1.92;0.50;;;15.90;67.80;;;;;;4864546;29;20050;-71
2020/12/22 02:28:32;;;;;;;2.63;0.63;;;15.90;67.90;;;;;;4863616;29;20092;-71
2020/12/22 02:31:03;;;;;;;2.63;0.65;;;15.90;67.90;;;;;;4864443;29;20049;-72
2020/12/22 02:33:29;;;;;;;2.33;0.57;;;15.90;67.90;;;;;;4865206;29;20440;-72
2020/12/22 02:35:55;;;;;;;1.75;0.50;;;15.90;67.90;;;;;;4864463;29;20080;-72
2020/12/22 02:38:23;;;;;;;2.13;0.45;;;15.90;68.00;;;;;;4864947;29;20050;-72
2020/12/22 02:40:49;;;;;;;2.30;0.43;;;15.90;68.00;;;;;;4864459;29;20046;-71
2020/12/22 02:43:15;;;;;;;2.25;0.45;;;15.90;68.00;;;;;;4864499;29;20519;-71
2020/12/22 02:45:44;;;;;;;2.38;0.38;;;15.90;68.00;;;;;;4863720;29;20125;-72
2020/12/22 02:48:14;;;;;;;2.10;0.50;;;15.90;68.10;;;;;;4863944;29;20057;-71
2020/12/22 02:50:40;;;;;;;2.38;0.70;;;15.90;68.10;;;;;;4864136;29;20137;-71
2020/12/22 02:53:07;;;;;;;1.90;0.50;;;15.90;68.20;;;;;;4864093;29;20045;-71
2020/12/22 02:55:33;;;;;;;1.13;0.25;;;15.90;68.20;;;;;;4864119;29;20444;-71
2020/12/22 02:57:59;;;;;;;2.40;0.50;;;15.90;68.20;;;;;;4864388;29;20124;-71
2020/12/22 03:00:25;;;;;;;3.22;0.80;;;15.90;68.20;;;;;;4863232;29;20509;-71
2020/12/22 03:02:51;;;;;;;1.63;0.60;;;15.90;68.30;;;;;;4863119;29;20064;-72
2020/12/22 03:05:18;;;;;;;1.75;0.55;;;15.80;68.30;;;;;;4863432;29;20053;-72
2020/12/22 03:07:44;;;;;;;1.92;0.57;;;15.90;68.40;;;;;;4863840;29;20057;-71
2020/12/22 03:10:12;;;;;;;2.03;0.55;;;15.80;68.40;;;;;;4863759;29;20050;-72
2020/12/22 03:12:38;;;;;;;1.95;0.40;;;15.90;68.40;;;;;;4864043;29;20049;-72
2020/12/22 03:15:05;;;;;;;3.50;0.90;;;15.80;68.90;;;;;;4864087;29;20472;-71
2020/12/22 03:17:32;;;;;;;2.67;0.65;;;15.80;68.40;;;;;;4863542;29;20519;-71
2020/12/22 03:19:58;;;;;;;5.05;0.63;;;15.90;68.40;;;;;;4863600;29;20536;-72
2020/12/22 03:22:24;;;;;;;3.30;0.90;;;15.90;68.40;;;;;;4863415;29;20053;-71
2020/12/22 03:24:50;;;;;;;5.70;1.25;;;15.90;68.50;;;;;;4863229;29;20042;-71
2020/12/22 03:27:16;;;;;;;2.78;1.08;;;15.80;68.50;;;;;;4864228;29;20052;-73
2020/12/22 03:29:42;;;;;;;5.30;1.20;;;15.80;68.60;;;;;;4863156;29;20132;-72
2020/12/22 03:32:09;;;;;;;4.95;1.55;;;15.80;68.60;;;;;;4863623;29;20117;-72
2020/12/22 03:34:35;;;;;;;5.45;1.40;;;15.90;68.70;;;;;;4863293;29;20042;-72
2020/12/22 03:37:01;;;;;;;5.50;1.45;;;15.80;68.70;;;;;;4863208;29;20135;-72
2020/12/22 03:39:27;;;;;;;4.95;1.40;;;15.80;68.70;;;;;;4863407;29;20452;-71
2020/12/22 03:41:53;;;;;;;5.03;1.63;;;15.80;68.80;;;;;;4862962;29;20072;-71
2020/12/22 03:44:19;;;;;;;5.15;1.63;;;15.80;68.70;;;;;;4863460;29;20447;-72
2020/12/22 03:46:48;;;;;;;4.28;1.20;;;15.80;68.70;;;;;;4863367;29;20057;-71
2020/12/22 03:49:18;;;;;;;6.05;1.30;;;15.80;68.70;;;;;;4863477;29;20054;-72
2020/12/22 03:51:44;;;;;;;5.75;1.67;;;15.80;68.80;;;;;;4863490;29;20049;-71
2020/12/22 03:54:11;;;;;;;5.13;1.30;;;15.90;68.90;;;;;;4863076;29;20121;-72
2020/12/22 03:56:37;;;;;;;9.60;1.95;;;15.80;68.80;;;;;;4863226;29;20378;-71
2020/12/22 03:59:03;;;;;;;3.50;1.10;;;15.80;68.80;;;;;;4863143;29;20061;-71
2020/12/22 04:01:29;;;;;;;7.20;1.67;;;15.80;68.80;;;;;;4863329;29;20041;-72
2020/12/22 04:03:55;;;;;;;7.30;1.70;;;15.80;68.90;;;;;;4862311;29;20079;-72
2020/12/22 04:06:21;;;;;;;7.82;1.13;;;15.80;68.90;;;;;;4863063;29;20076;-71
2020/12/22 04:08:52;;;;;;;6.88;1.55;;;15.80;69.00;;;;;;4863058;29;20045;-72
2020/12/22 04:11:18;;;;;;;5.47;1.58;;;15.80;68.90;;;;;;4862885;29;20052;-72
2020/12/22 04:13:44;;;;;;;7.45;1.35;;;15.80;69.00;;;;;;4862870;29;20061;-72
2020/12/22 04:16:09;;;;;;;8.45;1.75;;;15.80;69.10;;;;;;4863161;29;20057;-71
2020/12/22 04:18:35;;;;;;;8.95;1.95;;;15.80;69.10;;;;;;4862839;29;20046;-72
2020/12/22 04:21:02;;;;;;;5.50;1.30;;;15.80;69.10;;;;;;4862717;29;20455;-72
2020/12/22 04:23:28;;;;;;;9.20;1.80;;;15.80;69.10;;;;;;4862667;29;20113;-71
2020/12/22 04:25:54;;;;;;;5.03;1.45;;;15.80;69.00;;;;;;4862884;29;20049;-71
2020/12/22 04:28:20;;;;;;;6.10;1.50;;;15.80;69.00;;;;;;4862840;29;20138;-72
2020/12/22 04:30:47;;;;;;;6.82;1.67;;;15.80;68.90;;;;;;4862583;29;20125;-71
2020/12/22 04:33:13;;;;;;;6.10;1.77;;;15.80;69.00;;;;;;4862047;29;20138;-71
2020/12/22 04:35:39;;;;;;;7.57;1.80;;;15.80;69.00;;;;;;4862383;29;20054;-72
2020/12/22 04:38:05;;;;;;;7.80;1.75;;;15.80;68.90;;;;;;4862398;29;20064;-72
2020/12/22 04:40:32;;;;;;;8.60;1.50;;;15.80;68.80;;;;;;4862948;29;20049;-72
2020/12/22 04:43:01;;;;;;;8.85;1.75;;;15.80;68.80;;;;;;4865728;29;20121;-72
2020/12/22 04:45:28;;;;;;;7.07;1.35;;;15.90;68.90;;;;;;4866175;29;20081;-72
2020/12/22 04:47:56;;;;;;;5.95;1.55;;;15.80;68.80;;;;;;4866252;29;20061;-72
2020/12/22 04:50:21;;;;;;;8.18;1.98;;;15.80;68.80;;;;;;4866267;29;20080;-72
2020/12/22 04:52:49;;;;;;;8.45;1.67;;;15.80;68.70;;;;;;4866369;29;20073;-71
2020/12/22 04:55:17;;;;;;;9.45;1.92;;;15.80;68.70;;;;;;4866149;29;20359;-71
2020/12/22 04:57:48;;;;;;;7.78;2.03;;;15.80;68.60;;;;;;4866912;29;20128;-72
2020/12/22 05:00:15;;;;;;;7.47;1.75;;;15.80;68.50;;;;;;4864767;29;20088;-72
2020/12/22 05:02:43;;;;;;;7.35;1.45;;;15.80;68.50;;;;;;4866041;29;20064;-72
2020/12/22 05:05:10;;;;;;;8.73;1.52;;;15.80;68.60;;;;;;4855421;29;20353;-72
2020/12/22 05:07:39;;;;;;;10.88;1.60;;;15.80;68.70;;;;;;4858624;29;20132;-72
2020/12/22 05:10:13;;;;;;;11.13;1.80;;;15.80;68.80;;;;;;4851041;29;20101;-72
2020/12/22 05:12:40;;;;;;;5.85;1.40;;;15.80;68.60;;;;;;4865437;29;20057;-72
2020/12/22 05:15:07;;;;;;;9.98;2.10;;;15.80;68.40;;;;;;4865630;29;20383;-73
2020/12/22 05:17:41;;;;;;;11.50;1.67;;;15.90;68.20;;;;;;4865128;29;20068;-71
2020/12/22 05:20:13;;;;;;;8.02;1.95;;;15.90;68.30;;;;;;4865509;29;20053;-72
2020/12/22 05:22:41;;;;;;;9.37;2.33;;;16.00;68.30;;;;;;4865237;29;20069;-72
2020/12/22 05:25:07;;;;;;;10.15;1.75;;;16.00;68.20;;;;;;4865808;29;20466;-77
2020/12/22 05:27:33;;;;;;;10.68;2.00;;;16.10;68.10;;;;;;4861528;29;20049;-73
2020/12/22 05:30:00;;;;;;;11.18;1.73;;;16.20;68.10;;;;;;4860983;29;20058;-72
2020/12/22 05:32:27;;;;;;;12.13;1.70;;;16.30;68.10;;;;;;4864698;29;20491;-75
2020/12/22 05:34:54;;;;;;;11.80;1.75;;;16.40;68.00;;;;;;4863946;29;20061;-71
2020/12/22 05:37:27;;;;;;;10.18;1.88;;;16.50;67.90;;;;;;4865430;29;20041;-70
2020/12/22 05:39:53;;;;;;;15.98;1.83;;;16.60;68.00;;;;;;4865727;29;20054;-71
2020/12/22 05:42:20;;;;;;;11.70;1.58;;;16.70;68.00;;;;;;4864695;29;20064;-71
2020/12/22 05:44:50;;;;;;;14.40;2.17;;;16.80;68.00;;;;;;4865424;29;20097;-71
2020/12/22 05:47:18;;;;;;;10.07;1.85;;;16.90;68.20;;;;;;4865273;29;20053;-71
2020/12/22 05:49:58;;;;;;;10.32;2.42;;;17.00;68.20;;;;;;4864572;29;20113;-71
2020/12/22 05:52:25;;;;;;;12.23;2.05;;;17.00;68.50;;;;;;4864118;29;20049;-71
2020/12/22 05:54:52;;;;;;;12.95;2.10;;;17.00;68.50;;;;;;4865000;29;20204;-71
2020/12/22 05:57:26;;;;;;;11.50;2.15;;;17.10;68.70;;;;;;4864448;29;20069;-70
2020/12/22 05:59:52;;;;;;;10.38;1.77;;;17.10;68.70;;;;;;4865041;29;20083;-73
2020/12/22 06:02:29;;;;;;;10.32;2.42;;;17.20;68.70;;;;;;4864291;29;20057;-72
2020/12/22 06:04:57;;;;;;;9.70;1.55;;;17.20;68.70;;;;;;4851447;29;20125;-71
2020/12/22 06:07:25;;;;;;;9.15;2.10;;;17.20;68.60;;;;;;4863666;29;20068;-72
2020/12/22 06:09:51;;;;;;;8.77;2.10;;;17.30;68.70;;;;;;4863910;29;20134;-70
2020/12/22 06:12:19;;;;;;;8.90;1.95;;;17.30;68.70;;;;;;4865113;29;20060;-70
2020/12/22 06:14:48;;;;;;;10.30;1.75;;;17.30;68.90;;;;;;4864507;29;20140;-70
2020/12/22 06:17:14;;;;;;;7.10;2.05;;;17.40;69.00;;;;;;4864613;29;20512;-70
2020/12/22 06:19:41;;;;;;;6.68;1.45;;;17.40;69.00;;;;;;4864317;29;20056;-70
2020/12/22 06:22:10;;;;;;;11.35;2.08;;;17.50;69.10;;;;;;4865246;29;20113;-71
2020/12/22 06:24:37;;;;;;;9.23;1.60;;;17.50;69.00;;;;;;4864051;29;20073;-71
2020/12/22 06:27:05;;;;;;;12.50;2.47;;;17.60;69.10;;;;;;4864207;29;20060;-71
2020/12/22 06:29:32;;;;;;;7.80;2.00;;;17.60;69.00;;;;;;4864640;29;20133;-70
2020/12/22 06:32:21;;;;;;;10.05;1.77;;;17.60;68.90;;;;;;4863709;29;20452;-71
2020/12/22 06:34:47;;;;;;;13.25;2.30;;;17.70;69.30;;;;;;4860002;29;20431;-70
2020/12/22 06:37:13;;;;;;;8.75;1.98;;;17.70;68.80;;;;;;4864087;29;20555;-70
2020/12/22 06:39:44;;;;;;;12.98;2.17;;;17.70;68.70;;;;;;4863806;29;20049;-71
2020/12/22 06:42:11;;;;;;;10.18;1.95;;;17.70;68.70;;;;;;4864171;29;20395;-74
2020/12/22 06:44:37;;;;;;;8.48;1.95;;;17.70;68.50;;;;;;4862189;29;20069;-74
2020/12/22 06:47:04;;;;;;;9.02;2.03;;;17.70;68.50;;;;;;4863611;29;20474;-72
2020/12/22 06:49:45;;;;;;;9.13;1.90;;;17.70;68.50;;;;;;4863370;29;20053;-71
2020/12/22 06:52:32;;;;;;;10.05;2.03;;;17.70;68.40;;;;;;4865060;29;20045;-73
2020/12/22 06:54:59;;;;;;;12.18;2.10;;;17.70;68.30;;;;;;4862906;29;20052;-73
2020/12/22 06:57:43;;;;;;;7.03;1.45;;;17.60;68.40;;;;;;4863501;29;20092;-73
2020/12/22 07:00:30;;;;;;;10.25;2.10;;;17.60;68.50;;;;;;4864091;29;20538;-72
2020/12/22 07:03:31;;;;;;;15.07;1.60;;;17.60;68.60;;;;;;4842503;29;20058;-72
2020/12/22 07:05:57;;;;;;;12.75;2.20;;;17.70;68.70;;;;;;4843630;29;20463;-72
2020/12/22 07:08:22;;;;;;;8.98;1.92;;;17.60;68.60;;;;;;4855650;29;20046;-72
2020/12/22 07:10:52;;;;;;;13.07;2.22;;;17.70;68.60;;;;;;4862616;29;20037;-71
2020/12/22 07:13:19;;;;;;;10.43;2.25;;;17.70;68.60;;;;;;4861008;29;20061;-71
2020/12/22 07:15:50;;;;;;;11.00;2.05;;;17.70;68.50;;;;;;4863142;29;20050;-73
2020/12/22 07:18:19;;;;;;;8.80;1.70;;;17.70;68.50;;;;;;4863410;29;20426;-74
2020/12/22 07:20:46;;;;;;;8.85;1.75;;;17.80;68.60;;;;;;4862480;29;20363;-73
2020/12/22 07:23:13;;;;;;;13.60;2.00;;;17.80;68.40;;;;;;4862764;29;20082;-74
2020/12/22 07:25:42;;;;;;;9.13;1.50;;;17.80;68.30;;;;;;4863032;29;20105;-73
2020/12/22 07:28:09;;;;;;;12.98;2.08;;;17.80;68.30;;;;;;4859762;29;20122;-73
2020/12/22 07:30:36;;;;;;;11.38;1.55;;;17.80;68.30;;;;;;4854774;29;20045;-73
2020/12/22 07:33:03;;;;;;;10.50;2.05;;;17.80;68.20;;;;;;4858059;29;20125;-74
2020/12/22 07:35:29;;;;;;;10.20;1.60;;;17.90;68.20;;;;;;4862830;29;20049;-73
2020/12/22 07:38:03;;;;;;;7.43;1.40;;;17.90;68.20;;;;;;4862819;29;20510;-73
2020/12/22 07:40:29;;;;;;;8.02;1.45;;;17.90;68.10;;;;;;4862472;29;20045;-73
2020/12/22 07:43:12;;;;;;;8.75;1.50;;;17.90;68.00;;;;;;4862715;29;20450;-74
2020/12/22 07:45:52;;;;;;;9.18;1.40;;;17.90;68.00;;;;;;4862281;29;20053;-73
2020/12/22 07:48:19;;;;;;;10.70;1.75;;;17.90;68.00;;;;;;4862897;29;20069;-73
2020/12/22 07:50:51;;;;;;;10.15;1.48;;;17.90;68.00;;;;;;4862242;29;20041;-73
2020/12/22 07:53:17;;;;;;;5.13;1.03;;;17.90;68.00;;;;;;4862295;29;20124;-73
2020/12/22 07:55:43;;;;;;;9.02;1.40;;;18.00;68.00;;;;;;4859479;29;20166;-73
2020/12/22 07:58:09;;;;;;;9.65;1.73;;;18.00;68.00;;;;;;4862535;29;20052;-74
2020/12/22 08:00:35;;;;;;;8.10;1.35;;;18.00;68.00;;;;;;4862820;29;20133;-74
2020/12/22 08:03:21;;;;;;;7.20;1.63;;;18.00;67.90;;;;;;4862554;29;20049;-72
2020/12/22 08:06:01;;;;;;;9.18;1.95;;;18.00;67.90;;;;;;4861887;29;20073;-72
2020/12/22 08:08:28;;;;;;;6.05;0.90;;;18.00;67.80;;;;;;4855174;29;20463;-72
2020/12/22 08:10:53;;;;;;;4.15;1.90;;;18.00;67.70;;;;;;4860313;29;20067;-72
2020/12/22 08:13:23;;;;;;;6.07;0.80;;;18.00;67.70;;;;;;4862787;29;20367;-72
2020/12/22 08:15:49;;;;;;;4.10;1.13;;;18.00;67.60;;;;;;4861924;29;20060;-72
2020/12/22 08:18:16;;;;;;;8.35;1.42;;;18.00;67.60;;;;;;4862262;29;20053;-73
2020/12/22 08:20:45;;;;;;;3.63;0.90;;;18.00;67.60;;;;;;4861567;29;20056;-72
2020/12/22 08:23:11;;;;;;;6.28;0.93;;;18.00;67.50;;;;;;4862762;29;20443;-72
2020/12/22 08:25:37;;;;;;;4.03;0.50;;;18.00;67.50;;;;;;4863251;29;20045;-72
2020/12/22 08:28:03;;;;;;;4.22;0.50;;;18.10;67.60;;;;;;4846504;29;20058;-72
2020/12/22 08:30:32;;;;;;;7.70;1.00;;;18.10;67.60;;;;;;4862631;29;20147;-71
2020/12/22 08:32:59;;;;;;;7.85;1.48;;;18.10;67.60;;;;;;4861092;29;20117;-72
2020/12/22 08:35:25;;;;;;;7.95;0.80;;;18.10;67.50;;;;;;4861734;29;20060;-72
2020/12/22 08:37:51;;;;;;;7.70;0.90;;;18.10;67.50;;;;;;4861171;29;20049;-73
2020/12/22 08:40:31;;;;;;;3.63;0.90;;;18.10;67.50;;;;;;4862270;29;20045;-73
2020/12/22 08:43:00;;;;;;;6.32;1.15;;;18.00;67.30;;;;;;4862129;29;20089;-72
2020/12/22 08:45:28;;;;;;;7.15;0.98;;;18.00;67.20;;;;;;4862331;29;20056;-72
2020/12/22 08:47:54;;;;;;;6.07;0.70;;;18.00;67.30;;;;;;4862607;29;20151;-73
2020/12/22 08:50:20;;;;;;;9.32;1.23;;;18.00;67.40;;;;;;4861936;29;20057;-73
2020/12/22 08:52:46;;;;;;;6.07;0.80;;;18.00;67.40;;;;;;4861659;29;20053;-72
2020/12/22 08:55:12;;;;;;;6.70;1.13;;;17.90;67.30;;;;;;4862731;29;20113;-73
2020/12/22 08:57:38;;;;;;;7.72;1.17;;;17.90;68.00;;;;;;4862229;29;20146;-73
2020/12/22 09:00:12;;;;;;;12.68;1.30;;;17.90;67.40;;;;;;4876239;29;20120;-72
2020/12/22 09:02:38;;;;;;;;;;;17.90;67.50;;;;;;4861982;29;20117;-72
2020/12/22 09:05:11;;;;;;;4.15;0.90;;;17.80;67.50;;;;;;4862107;29;20338;-73
2020/12/22 09:07:37;;;;;;;6.80;0.80;;;17.80;67.80;;;;;;4862389;29;20046;-76
2020/12/22 09:10:10;;;;;;;4.28;0.85;;;17.90;67.90;;;;;;4862100;29;20082;-74
2020/12/22 09:12:36;;;;;;;5.73;0.70;;;17.90;67.90;;;;;;4862205;29;20100;-73
2020/12/22 09:15:06;;;;;;;3.25;0.70;;;17.90;67.70;;;;;;4862118;29;20042;-73
2020/12/22 09:17:33;;;;;;;5.40;1.08;;;17.90;67.70;;;;;;4862219;29;20077;-73
2020/12/22 09:20:00;;;;;;;5.78;1.20;;;17.90;67.70;;;;;;4862082;29;20053;-73
2020/12/22 09:22:31;;;;;;;6.20;1.10;;;17.90;67.70;;;;;;4861756;29;20190;-76
2020/12/22 09:24:59;;;;;;;6.50;1.10;;;17.90;67.70;;;;;;4876472;29;20076;-73
2020/12/22 09:27:29;;;;;;;5.57;0.75;;;17.90;67.70;;;;;;4863072;29;20046;-72
2020/12/22 09:29:56;;;;;;;6.07;1.17;;;17.90;67.60;;;;;;4865194;29;20065;-72
2020/12/22 09:32:23;;;;;;;5.88;1.13;;;18.00;67.50;;;;;;4864859;29;20060;-73
2020/12/22 09:34:49;;;;;;;5.32;0.98;;;18.00;67.50;;;;;;4864997;29;20077;-72
2020/12/22 09:37:15;;;;;;;7.60;1.20;;;18.00;67.40;;;;;;4865406;29;20053;-73
2020/12/22 09:39:41;;;;;;;6.47;1.13;;;17.90;67.30;;;;;;4865939;29;20045;-73
2020/12/22 09:42:07;;;;;;;5.45;1.25;;;17.90;67.10;;;;;;4861851;29;20041;-73
2020/12/22 09:44:38;;;;;;;6.07;0.60;;;17.90;67.00;;;;;;4854232;29;20057;-73
2020/12/22 09:47:04;;;;;;;8.55;1.35;;;17.90;66.80;;;;;;4859939;29;20069;-73
2020/12/22 09:49:30;;;;;;;10.85;1.00;;;17.90;66.80;;;;;;4864632;29;20371;-72
2020/12/22 09:51:56;;;;;;;6.57;1.13;;;17.90;66.80;;;;;;4864989;29;20128;-72
2020/12/22 09:54:22;;;;;;;5.72;0.77;;;17.90;66.70;;;;;;4859700;29;20129;-73
2020/12/22 09:56:49;;;;;;;8.15;0.80;;;17.90;66.80;;;;;;4862645;29;20060;-74
2020/12/22 09:59:16;;;;;;;9.98;0.90;;;17.90;66.80;;;;;;4864520;29;20363;-75
2020/12/22 10:01:42;;;;;;;7.60;0.73;;;17.90;66.90;;;;;;4863321;29;20046;-77
2020/12/22 10:04:09;;;;;;;8.35;0.90;;;17.90;66.90;;;;;;4863893;29;20049;-73
2020/12/22 10:06:34;;;;;;;8.07;0.60;;;17.90;67.00;;;;;;4864149;29;20045;-73
2020/12/22 10:09:00;;;;;;;7.78;1.10;;;17.90;66.90;;;;;;4864826;29;20490;-72
2020/12/22 10:11:30;;;;;;;8.70;1.00;;;17.90;66.90;;;;;;4864952;29;20049;-72
2020/12/22 10:13:55;;;;;;;10.82;1.23;;;17.90;66.80;;;;;;4864528;29;20102;-73
2020/12/22 10:16:22;;;;;;;7.47;1.27;;;17.90;66.80;;;;;;4865123;29;20069;-73
2020/12/22 10:18:49;;;;;;;9.27;0.95;;;17.80;66.70;;;;;;4864674;29;20061;-73
2020/12/22 10:21:18;;;;;;;10.45;0.80;;;17.80;66.70;;;;;;4864564;29;20061;-73
2020/12/22 10:23:46;;;;;;;5.95;0.82;;;17.80;67.20;;;;;;4864127;29;20380;-72
2020/12/22 10:26:14;;;;;;;11.77;1.20;;;17.80;66.60;;;;;;4864410;29;20088;-73
2020/12/22 10:28:42;;;;;;;7.70;0.80;;;17.80;66.30;;;;;;4864418;29;20064;-73
2020/12/22 10:31:19;;;;;;;7.75;0.88;;;17.70;66.10;;;;;;4864411;29;20077;-73
2020/12/22 10:33:46;;;;;;;7.28;0.80;;;17.70;66.10;;;;;;4864654;29;20063;-73
2020/12/22 10:36:16;;;;;;;6.53;0.75;;;17.70;66.30;;;;;;4864432;29;20125;-73
2020/12/22 10:38:42;;;;;;;4.13;0.47;;;17.70;66.20;;;;;;4863689;29;20060;-73
2020/12/22 10:41:08;;;;;;;4.30;0.60;;;17.70;66.20;;;;;;4864458;29;20059;-72
2020/12/22 10:43:34;;;;;;;5.80;0.52;;;17.60;66.10;;;;;;4864430;29;20054;-73
2020/12/22 10:46:02;;;;;;;5.43;0.50;;;17.60;66.10;;;;;;4864086;29;20483;-73
2020/12/22 10:48:30;;;;;;;4.78;0.73;;;17.60;66.00;;;;;;4864144;29;20072;-73
2020/12/22 10:50:56;;;;;;;3.75;0.52;;;17.60;66.00;;;;;;4863540;29;20136;-73
2020/12/22 10:53:22;;;;;;;4.97;1.05;;;17.60;66.00;;;;;;4864831;29;20460;-74
2020/12/22 10:55:48;;;;;;;3.47;0.60;;;17.60;65.90;;;;;;4864292;29;20069;-73
2020/12/22 10:58:14;;;;;;;5.13;0.65;;;17.60;66.00;;;;;;4864492;29;20132;-74
2020/12/22 11:00:40;;;;;;;5.18;1.02;;;17.50;65.90;;;;;;4864032;29;20087;-73
2020/12/22 11:03:08;;;;;;;3.60;0.60;;;17.50;65.90;;;;;;4864375;29;20417;-73
2020/12/22 11:08:20;;;;;;;5.03;0.55;;;17.50;65.80;;;;;;4863876;29;20124;-72
2020/12/22 11:10:46;;;;;;;3.95;0.90;;;17.50;65.80;;;;;;4863930;29;20045;-72
2020/12/22 11:13:12;;;;;;;4.50;0.47;;;17.40;65.80;;;;;;4863560;29;20133;-73
2020/12/22 11:15:37;;;;;;;8.27;0.52;;;17.40;65.70;;;;;;4863514;29;20124;-73
2020/12/22 11:18:03;;;;;;;3.50;0.75;;;17.50;65.80;;;;;;4863506;29;20049;-73
2020/12/22 11:20:29;;;;;;;3.45;0.57;;;17.40;65.70;;;;;;4863369;29;20076;-73
2020/12/22 11:22:55;;;;;;;3.63;0.60;;;17.40;65.70;;;;;;4863724;29;20049;-72
2020/12/22 11:25:21;;;;;;;2.83;0.35;;;17.40;65.60;;;;;;4863676;29;20049;-73
2020/12/22 11:27:46;;;;;;;5.57;0.60;;;17.40;65.60;;;;;;4863417;29;20128;-73
2020/12/22 11:30:13;;;;;;;3.17;0.50;;;17.40;65.60;;;;;;4862387;29;20054;-72
2020/12/22 11:32:40;;;;;;;2.88;0.50;;;17.40;65.50;;;;;;4863583;29;20049;-77
2020/12/22 11:35:07;;;;;;;2.92;0.52;;;17.40;65.20;;;;;;4852041;29;20054;-72
2020/12/22 11:37:33;;;;;;;7.15;0.98;;;17.30;64.50;;;;;;4862224;29;20049;-74
2020/12/22 11:39:59;;;;;;;5.75;0.68;;;17.30;64.30;;;;;;4862248;29;20049;-73
2020/12/22 11:42:25;;;;;;;5.97;0.80;;;17.30;64.60;;;;;;4863537;29;20436;-72
2020/12/22 11:44:51;;;;;;;4.28;0.52;;;17.20;64.70;;;;;;4861659;29;20038;-73
2020/12/22 11:47:16;;;;;;;10.52;1.17;;;17.30;64.90;;;;;;4859858;29;20046;-74
2020/12/22 11:49:42;;;;;;;8.13;0.95;;;17.30;64.90;;;;;;4859093;29;20204;-73
2020/12/22 11:52:09;;;;;;;10.35;0.77;;;17.40;65.10;;;;;;4861949;29;20053;-74
2020/12/22 11:54:36;;;;;;;5.53;0.50;;;17.40;65.10;;;;;;4862847;29;20094;-73
2020/12/22 11:57:03;;;;;;;5.57;0.93;;;17.40;65.70;;;;;;4862537;29;20128;-73
2020/12/22 11:59:29;;;;;;;6.45;0.60;;;17.50;65.30;;;;;;4862987;29;20060;-75
2020/12/22 12:01:55;;;;;;;6.45;0.60;;;17.50;65.40;;;;;;4860758;29;20053;-75
2020/12/22 12:04:21;;;;;;;6.35;0.93;;;17.60;65.60;;;;;;4862062;29;20063;-73
2020/12/22 12:06:48;;;;;;;3.97;0.50;;;17.70;65.60;;;;;;4862056;29;20053;-74
2020/12/22 12:09:15;;;;;;;4.82;0.80;;;17.70;65.60;;;;;;4860672;29;20088;-73
2020/12/22 12:11:41;;;;;;;4.68;0.80;;;17.80;65.60;;;;;;4862407;29;20136;-74
2020/12/22 12:14:07;;;;;;;10.30;0.60;;;17.80;65.60;;;;;;4862625;29;20045;-73
2020/12/22 12:16:33;;;;;;;12.52;1.52;;;17.90;65.60;;;;;;4861725;29;20046;-80
2020/12/22 12:18:59;;;;;;;6.40;1.25;;;17.90;66.30;;;;;;4863068;29;20133;-73
2020/12/22 12:21:26;;;;;;;17.52;2.53;;;17.90;66.10;;;;;;4862224;29;20120;-73
2020/12/22 12:23:52;;;;;;;16.38;2.17;;;17.90;66.40;;;;;;4862653;29;20474;-74
2020/12/22 12:26:17;;;;;;;11.30;1.83;;;18.00;66.90;;;;;;4861704;29;20045;-77
2020/12/22 12:28:43;;;;;;;16.35;4.35;;;18.00;67.10;;;;;;4859769;29;20440;-74
2020/12/22 12:31:14;;;;;;;14.13;3.33;;;18.00;67.30;;;;;;4861190;29;20519;-75
2020/12/22 12:33:41;;;;;;;12.90;3.00;;;18.00;68.10;;;;;;4860676;29;20050;-78
2020/12/22 12:36:07;;;;;;;19.65;3.58;;;18.00;68.70;;;;;;4861087;29;20078;-77
2020/12/22 12:38:33;;;;;;;13.20;3.38;;;18.00;69.10;;;;;;4861460;29;20041;-75
2020/12/22 12:41:00;;;;;;;15.95;4.72;;;18.00;69.80;;;;;;4855968;29;20046;-74
2020/12/22 12:43:26;;;;;;;25.63;6.05;;;18.00;70.30;;;;;;4847273;29;20372;-73
2020/12/22 12:45:51;;;;;;;18.55;5.32;;;18.00;70.60;;;;;;4850823;29;20050;-73
2020/12/22 12:48:17;;;;;;;14.18;3.50;;;18.00;71.10;;;;;;4851590;29;20113;-74
2020/12/22 12:50:43;;;;;;;17.65;3.95;;;18.10;70.80;;;;;;4856995;29;20139;-72